Agoura Hills, California
Current Conditions -  °F | °C
As of 1:51 PM on Friday 24 Oct 2014 (Local Time) from KVNY Reporting Station
Clear Clear  
Wind Chill: 32°   Ceiling: Unl
Heat Index: 32°   Visibility: 10mi
Dew Point: -6°   Wind: 10mph
Humidity: 9%   Direction: 180°S
Pressure: 29.95"   Gusts: NA
Location:  34.15°N, 118.77°W
Report Text: KVNY 242051Z 18009KT 10SM CLR 32/M06 A2995 RMK AO2 SLP131 T03171056 58019
Loading
Personal Weather Stations






























Interactive Weather Map New forecast layout! Learn more

10-Day Weather Forecast

Advertisements
Track Severe Weather on mobile